Time;durP1;ratioP1;P1;durP2;ratioP2;P2;SDS_P1;SDS_P2;PMS_P1;PMS_P2;Temp;Humidity;BMP_temperature;BMP_pressure;BME280_temperature;BME280_humidity;BME280_pressure;Samples;Min_cycle;Max_cycle;Signal;HPM_P1;HPM_P2
2023/01/11 00:00:44;;;;;;;0.10;0.10;;;4.50;99.90;12.80;163505.00;;;;4956770;28;20242;-77
2023/01/11 00:03:12;;;;;;;0.10;0.10;;;4.50;99.90;12.80;163505.00;;;;4955170;29;20190;-78
2023/01/11 00:05:43;;;;;;;0.10;0.10;;;4.50;99.90;12.80;163505.00;;;;4970915;28;20265;-78
2023/01/11 00:08:12;;;;;;;0.10;0.10;;;4.50;99.90;12.80;163505.00;;;;4975790;28;20256;-79
2023/01/11 00:10:40;;;;;;;0.10;0.10;;;4.60;99.90;12.80;163505.00;;;;4974019;28;20217;-79
2023/01/11 00:13:08;;;;;;;0.10;0.10;;;4.60;99.90;12.80;163505.00;;;;4979552;28;20635;-79
2023/01/11 00:15:37;;;;;;;0.10;0.10;;;4.70;99.90;12.80;163505.00;;;;4983007;28;20208;-79
2023/01/11 00:18:05;;;;;;;0.03;0.03;;;4.70;99.90;12.80;163505.00;;;;4976018;28;20208;-78
2023/01/11 00:20:33;;;;;;;0.10;0.10;;;4.70;99.90;12.80;163505.00;;;;4974742;28;20221;-78
2023/01/11 00:23:02;;;;;;;0.08;0.08;;;4.70;99.90;12.80;163505.00;;;;4973888;28;20544;-78
2023/01/11 00:25:30;;;;;;;0.10;0.10;;;4.80;99.90;12.80;163505.00;;;;4980551;28;20197;-79
2023/01/11 00:27:58;;;;;;;0.10;0.10;;;4.80;99.90;12.80;163505.00;;;;4974922;28;20201;-78
2023/01/11 00:30:26;;;;;;;0.10;0.10;;;4.80;99.90;12.80;163505.00;;;;4974723;28;20217;-79
2023/01/11 00:32:56;;;;;;;0.10;0.10;;;4.90;99.90;12.80;163505.00;;;;4976260;28;20662;-79
2023/01/11 00:35:26;;;;;;;0.10;0.10;;;4.90;99.90;12.80;163505.00;;;;4968496;28;20228;-79
2023/01/11 00:37:58;;;;;;;0.10;0.10;;;4.90;99.90;12.80;163505.00;;;;4974556;28;20208;-78
2023/01/11 00:40:27;;;;;;;0.10;0.10;;;4.90;99.90;12.80;163505.00;;;;4982627;28;20283;-77
2023/01/11 00:48:41;;;;;;;0.10;0.10;;;4.90;99.90;12.80;163505.00;;;;4968500;28;20229;-77
2023/01/11 00:51:09;;;;;;;0.10;0.10;;;4.90;99.90;12.80;163505.00;;;;4964120;28;20245;-78
2023/01/11 00:53:37;;;;;;;0.10;0.10;;;4.90;99.90;12.80;163505.00;;;;4965501;28;20280;-79
2023/01/11 00:56:07;;;;;;;0.10;0.10;;;4.90;99.90;12.80;163505.00;;;;4973406;28;20622;-78
2023/01/11 00:58:35;;;;;;;0.10;0.10;;;4.90;99.90;12.80;163505.00;;;;4973877;28;20197;-77
2023/01/11 01:01:07;;;;;;;0.10;0.10;;;4.80;99.90;12.80;163505.00;;;;4966129;28;20715;-78
2023/01/11 01:03:35;;;;;;;0.10;0.10;;;4.80;99.90;12.80;163505.00;;;;4954634;29;20198;-78
2023/01/11 01:06:03;;;;;;;0.10;0.10;;;4.80;99.90;12.80;163505.00;;;;4969748;28;20288;-78
2023/01/11 01:08:31;;;;;;;0.10;0.10;;;4.80;99.90;12.80;163505.00;;;;4972607;28;20260;-79
2023/01/11 01:10:59;;;;;;;0.10;0.10;;;4.80;99.90;12.80;163505.00;;;;4970880;28;20214;-79
2023/01/11 01:16:13;;;;;;;0.10;0.10;;;4.70;99.90;12.80;163505.00;;;;4971907;28;20205;-78
2023/01/11 01:18:41;;;;;;;0.10;0.10;;;4.70;99.90;12.80;163505.00;;;;4974516;28;20642;-78
2023/01/11 01:21:09;;;;;;;0.10;0.10;;;4.70;99.90;12.80;163505.00;;;;4974776;28;20201;-78
2023/01/11 01:23:37;;;;;;;0.10;0.10;;;4.70;99.90;12.80;163505.00;;;;4975098;28;20228;-78
2023/01/11 01:26:06;;;;;;;0.10;0.10;;;4.70;99.90;12.80;163505.00;;;;4981318;28;20200;-79
2023/01/11 01:28:36;;;;;;;0.10;0.10;;;4.70;99.90;12.80;163505.00;;;;4976978;28;20252;-78
2023/01/11 01:31:03;;;;;;;0.10;0.10;;;4.70;99.90;12.80;163505.00;;;;4975741;28;20197;-78
2023/01/11 01:33:31;;;;;;;0.10;0.10;;;4.60;99.90;12.80;163505.00;;;;4980161;28;20578;-78
2023/01/11 01:36:01;;;;;;;0.10;0.10;;;4.60;99.90;12.80;163505.00;;;;4967217;28;20201;-79
2023/01/11 01:38:29;;;;;;;0.10;0.10;;;4.60;99.90;12.80;163505.00;;;;4972759;28;20193;-79
2023/01/11 01:40:57;;;;;;;0.10;0.10;;;4.60;99.90;12.80;163505.00;;;;4974226;28;20725;-79
2023/01/11 01:43:49;;;;;;;0.10;0.10;;;4.60;99.90;12.80;163505.00;;;;4973675;28;20193;-79
2023/01/11 01:46:20;;;;;;;0.10;0.10;;;4.50;99.90;12.80;163505.00;;;;4957064;28;20202;-78
2023/01/11 01:48:53;;;;;;;0.10;0.10;;;4.50;99.90;12.80;163505.00;;;;4954304;29;20194;-78
2023/01/11 01:51:32;;;;;;;0.10;0.10;;;4.40;99.90;12.80;163505.00;;;;4960281;28;20264;-78
2023/01/11 01:54:08;;;;;;;0.10;0.10;;;4.40;99.90;12.80;163505.00;;;;4956447;28;20268;-77
2023/01/11 01:56:45;;;;;;;0.10;0.10;;;4.30;99.90;12.80;163505.00;;;;4954552;28;20252;-77
2023/01/11 01:59:19;;;;;;;0.10;0.10;;;4.30;99.90;12.80;163505.00;;;;4967338;28;20224;-77
2023/01/11 02:01:49;;;;;;;0.00;0.00;;;4.30;99.90;12.80;163505.00;;;;4972882;28;20228;-77
2023/01/11 02:04:24;;;;;;;0.10;0.10;;;4.20;99.90;12.80;163505.00;;;;4972680;28;20201;-77
2023/01/11 02:06:59;;;;;;;0.10;0.10;;;4.20;99.90;12.80;163505.00;;;;4976597;28;20196;-77
2023/01/11 02:09:35;;;;;;;0.10;0.10;;;4.20;99.90;12.80;163505.00;;;;4980252;28;20220;-77
2023/01/11 02:12:05;;;;;;;0.10;0.10;;;4.10;99.90;12.80;163505.00;;;;4976217;28;20197;-77
2023/01/11 02:14:37;;;;;;;0.15;0.15;;;4.10;99.90;12.80;163505.00;;;;4974265;28;20276;-77
2023/01/11 02:17:05;;;;;;;0.10;0.10;;;4.10;99.90;12.80;163505.00;;;;4957311;28;20213;-77
2023/01/11 02:19:53;;;;;;;0.10;0.10;;;4.20;99.90;12.80;163505.00;;;;4957008;29;20224;-77
2023/01/11 02:23:00;;;;;;;0.10;0.10;;;4.20;99.90;12.80;163505.00;;;;4973726;28;20677;-77
2023/01/11 02:26:02;;;;;;;0.10;0.10;;;4.20;99.90;12.80;163505.00;;;;4970833;28;20717;-77
2023/01/11 02:28:38;;;;;;;0.10;0.10;;;4.20;99.90;12.80;163505.00;;;;4976466;28;20197;-76
2023/01/11 02:31:19;;;;;;;0.10;0.10;;;4.20;99.90;12.80;163505.00;;;;4958014;28;20681;-78
2023/01/11 02:33:55;;;;;;;0.10;0.10;;;4.20;99.90;12.80;163505.00;;;;4976024;28;20197;-78
2023/01/11 02:36:38;;;;;;;0.10;0.10;;;4.20;99.90;12.80;163505.00;;;;4983116;28;20204;-78
2023/01/11 02:39:21;;;;;;;0.10;0.10;;;4.20;99.90;12.80;163505.00;;;;4976590;28;20231;-77
2023/01/11 02:45:01;;;;;;;0.10;0.10;;;4.30;99.90;12.80;163505.00;;;;4976350;28;20200;-77
2023/01/11 02:47:50;;;;;;;0.10;0.10;;;4.40;99.90;12.80;163505.00;;;;4977079;28;20197;-77
2023/01/11 02:50:28;;;;;;;0.10;0.10;;;4.40;99.90;12.80;163505.00;;;;4977929;28;20232;-77
2023/01/11 02:53:02;;;;;;;0.10;0.10;;;4.40;99.90;12.80;163505.00;;;;4993577;28;20289;-77
2023/01/11 02:55:38;;;;;;;0.10;0.10;;;4.40;99.90;12.80;163505.00;;;;4982733;28;20228;-77
2023/01/11 02:58:11;;;;;;;0.10;0.10;;;4.40;99.90;12.80;163505.00;;;;4985143;28;20196;-77
2023/01/11 03:00:42;;;;;;;0.10;0.10;;;4.50;99.90;12.80;163505.00;;;;4970093;28;20220;-77
2023/01/11 03:03:16;;;;;;;0.10;0.10;;;4.50;99.90;12.80;163505.00;;;;4984582;28;20189;-77
2023/01/11 03:05:50;;;;;;;0.10;0.10;;;4.50;99.90;12.80;163505.00;;;;4969240;28;20202;-75
2023/01/11 03:09:02;;;;;;;0.10;0.10;;;4.50;99.90;12.80;163505.00;;;;4974622;28;20229;-75
2023/01/11 03:14:46;;;;;;;0.10;0.10;;;4.50;99.90;12.80;163505.00;;;;4976082;28;20609;-76
2023/01/11 03:17:33;;;;;;;0.10;0.10;;;4.60;99.90;12.80;163505.00;;;;4974437;28;20201;-75
2023/01/11 03:20:09;;;;;;;0.10;0.10;;;4.60;99.90;12.80;163505.00;;;;4976005;28;20221;-76
2023/01/11 03:22:57;;;;;;;0.10;0.10;;;4.60;99.90;12.80;163505.00;;;;4979374;28;20215;-76
2023/01/11 03:25:40;;;;;;;0.10;0.10;;;4.60;99.90;12.80;163505.00;;;;4971625;28;20205;-75
2023/01/11 03:28:19;;;;;;;0.10;0.10;;;4.70;99.90;12.80;163505.00;;;;4975726;28;20193;-76
2023/01/11 03:30:57;;;;;;;0.10;0.10;;;4.70;99.90;12.80;163505.00;;;;4982887;28;20224;-76
2023/01/11 03:33:37;;;;;;;0.10;0.10;;;4.80;99.90;12.80;163505.00;;;;5001635;28;20231;-76
2023/01/11 03:36:17;;;;;;;0.10;0.10;;;4.90;99.90;12.80;163505.00;;;;4980566;28;20223;-75
2023/01/11 03:38:54;;;;;;;0.10;0.10;;;4.90;99.90;12.80;163505.00;;;;4985197;28;20776;-76
2023/01/11 03:41:26;;;;;;;0.10;0.10;;;4.90;99.90;12.80;163505.00;;;;4979481;28;20201;-76
2023/01/11 03:44:00;;;;;;;0.10;0.10;;;4.90;99.90;12.80;163505.00;;;;4962302;28;20197;-76
2023/01/11 03:46:33;;;;;;;0.10;0.10;;;4.90;99.90;12.80;163505.00;;;;4955447;29;20202;-75
2023/01/11 03:49:08;;;;;;;0.10;0.10;;;4.90;99.90;12.80;163505.00;;;;4966684;28;20577;-76
2023/01/11 03:51:43;;;;;;;0.10;0.10;;;4.90;99.90;12.80;163505.00;;;;4974759;28;20702;-76
2023/01/11 03:54:16;;;;;;;0.10;0.10;;;4.80;99.90;12.80;163505.00;;;;4977564;28;20238;-77
2023/01/11 03:56:56;;;;;;;0.10;0.10;;;4.80;99.90;12.80;163505.00;;;;4974706;28;20276;-76
2023/01/11 03:59:25;;;;;;;0.10;0.10;;;4.80;99.90;12.80;163505.00;;;;4959845;28;20221;-77
2023/01/11 04:01:53;;;;;;;0.10;0.10;;;4.70;99.90;12.80;163505.00;;;;4957392;28;20621;-77
2023/01/11 04:04:23;;;;;;;0.10;0.10;;;4.70;99.90;12.80;163505.00;;;;4955358;29;20225;-76
2023/01/11 04:06:51;;;;;;;0.10;0.10;;;4.70;99.90;12.80;163505.00;;;;4955643;28;20205;-76
2023/01/11 04:09:19;;;;;;;0.10;0.10;;;4.70;99.90;12.80;163505.00;;;;4973919;28;20224;-76
2023/01/11 04:11:47;;;;;;;0.05;0.05;;;4.70;99.90;12.80;163505.00;;;;4973964;28;20252;-75
2023/01/11 04:14:15;;;;;;;0.10;0.10;;;4.70;99.90;12.80;163505.00;;;;4974131;28;20201;-75
2023/01/11 04:16:43;;;;;;;0.10;0.10;;;4.70;99.90;12.80;163505.00;;;;4976175;28;20225;-76
2023/01/11 04:19:11;;;;;;;0.10;0.10;;;4.70;99.90;12.80;163505.00;;;;4961270;28;20288;-76
2023/01/11 04:21:42;;;;;;;0.10;0.10;;;4.80;99.90;12.80;163505.00;;;;4965698;28;20284;-75
2023/01/11 04:24:12;;;;;;;0.10;0.10;;;4.80;99.90;12.80;163505.00;;;;4974234;28;20487;-76
2023/01/11 04:26:40;;;;;;;0.10;0.10;;;4.80;99.90;12.80;163505.00;;;;4980673;28;20204;-75
2023/01/11 04:29:10;;;;;;;0.10;0.10;;;4.90;99.90;12.80;163505.00;;;;4958829;28;20221;-76
2023/01/11 04:31:38;;;;;;;0.10;0.10;;;4.90;99.90;12.80;163505.00;;;;4970292;28;20208;-77
2023/01/11 04:34:06;;;;;;;0.10;0.10;;;4.90;99.90;12.80;163505.00;;;;4973987;28;20201;-76
2023/01/11 04:36:34;;;;;;;0.10;0.10;;;4.90;99.90;12.80;163505.00;;;;4986276;28;20768;-75
2023/01/11 04:39:05;;;;;;;0.10;0.10;;;4.90;99.90;12.80;163505.00;;;;4976460;28;20220;-76
2023/01/11 04:44:18;;;;;;;0.10;0.10;;;4.80;99.90;12.80;163505.00;;;;4973829;28;20204;-76
2023/01/11 04:46:46;;;;;;;0.10;0.10;;;4.80;99.90;12.80;163505.00;;;;4970965;28;20666;-76
2023/01/11 04:49:14;;;;;;;0.10;0.10;;;4.70;99.90;12.80;163505.00;;;;4972818;28;20284;-75
2023/01/11 04:51:42;;;;;;;0.10;0.10;;;4.60;99.90;12.80;163505.00;;;;4976789;28;20200;-76
2023/01/11 04:54:12;;;;;;;0.10;0.10;;;4.60;99.90;12.80;163505.00;;;;4973712;28;20192;-76
2023/01/11 04:56:40;;;;;;;0.10;0.10;;;4.60;99.90;12.80;163505.00;;;;4973378;28;20280;-76
2023/01/11 04:59:08;;;;;;;0.10;0.10;;;4.60;99.90;12.80;163505.00;;;;4958593;28;20214;-78
2023/01/11 05:01:36;;;;;;;0.10;0.10;;;4.60;99.90;12.80;163505.00;;;;4955823;28;20202;-78
2023/01/11 05:04:04;;;;;;;0.10;0.10;;;4.50;99.90;12.80;163505.00;;;;4954260;28;20210;-76
2023/01/11 05:06:32;;;;;;;0.00;0.00;;;4.50;99.90;12.80;163505.00;;;;4963123;28;20212;-75
2023/01/11 05:09:00;;;;;;;0.10;0.10;;;4.50;99.90;12.80;163505.00;;;;4972164;28;20240;-74
2023/01/11 05:11:30;;;;;;;0.10;0.10;;;4.50;99.90;12.80;163505.00;;;;4972571;28;20678;-76
2023/01/11 05:13:58;;;;;;;0.10;0.10;;;4.40;99.90;12.80;163505.00;;;;4956345;28;20201;-76
2023/01/11 05:16:26;;;;;;;0.10;0.10;;;4.30;99.90;12.80;163505.00;;;;4970715;28;20216;-76
2023/01/11 05:18:58;;;;;;;0.10;0.10;;;4.20;99.90;12.80;163505.00;;;;4960499;28;20201;-76
2023/01/11 05:21:32;;;;;;;0.10;0.10;;;4.20;99.90;12.80;163505.00;;;;4954462;28;20193;-76
2023/01/11 05:24:03;;;;;;;0.10;0.10;;;4.20;99.90;12.80;163505.00;;;;4953982;28;20306;-79
2023/01/11 05:26:36;;;;;;;0.10;0.10;;;4.20;99.90;12.80;163505.00;;;;4975146;28;20252;-76
2023/01/11 05:29:07;;;;;;;0.10;0.10;;;4.20;99.90;12.80;163505.00;;;;4967138;28;20228;-75
2023/01/11 05:31:37;;;;;;;0.10;0.10;;;4.20;99.90;12.80;163505.00;;;;4970882;28;20205;-75
2023/01/11 05:34:06;;;;;;;0.10;0.10;;;4.20;99.90;12.80;163505.00;;;;4980714;28;20205;-74
2023/01/11 05:36:35;;;;;;;0.10;0.10;;;4.30;99.90;12.80;163505.00;;;;4967979;28;20275;-75
2023/01/11 05:39:05;;;;;;;0.10;0.10;;;4.20;99.90;12.80;163505.00;;;;4972271;28;20232;-75
2023/01/11 05:41:36;;;;;;;0.10;0.10;;;4.20;99.90;12.80;163505.00;;;;4962428;28;20225;-74
2023/01/11 05:46:50;;;;;;;0.10;0.10;;;4.20;99.90;12.80;163505.00;;;;4992467;28;20795;-77
2023/01/11 05:49:18;;;;;;;0.10;0.10;;;4.20;99.90;12.80;163505.00;;;;4958318;28;20608;-76
2023/01/11 05:51:46;;;;;;;0.10;0.10;;;4.20;99.90;12.80;163505.00;;;;4977898;28;20260;-76
2023/01/11 05:54:15;;;;;;;0.10;0.10;;;4.20;99.90;12.80;163505.00;;;;4973836;28;20590;-77
2023/01/11 05:56:44;;;;;;;0.10;0.10;;;4.20;99.90;12.80;163505.00;;;;4955790;28;20228;-76
2023/01/11 05:59:12;;;;;;;0.00;0.00;;;4.20;99.90;12.80;163505.00;;;;4972759;28;20564;-77
2023/01/11 06:01:40;;;;;;;0.10;0.10;;;4.20;99.90;12.80;163505.00;;;;4970344;28;20658;-75
2023/01/11 06:04:08;;;;;;;0.10;0.10;;;4.20;99.90;12.80;163505.00;;;;4973304;28;20600;-76
2023/01/11 06:06:39;;;;;;;0.10;0.10;;;4.30;99.90;12.80;163505.00;;;;4973577;28;20608;-77
2023/01/11 06:09:07;;;;;;;0.10;0.10;;;4.40;99.90;12.80;163505.00;;;;4959512;28;20221;-79
2023/01/11 06:11:35;;;;;;;0.10;0.10;;;4.40;99.90;12.80;163505.00;;;;4954409;28;20727;-76
2023/01/11 06:14:05;;;;;;;0.10;0.10;;;4.40;99.90;12.80;163505.00;;;;4955447;28;20190;-76
2023/01/11 06:16:32;;;;;;;0.10;0.10;;;4.40;99.90;12.80;163505.00;;;;4968260;28;20216;-76
2023/01/11 06:19:00;;;;;;;0.00;0.00;;;4.50;99.90;12.80;163505.00;;;;4972465;28;20251;-76
2023/01/11 06:21:28;;;;;;;0.10;0.10;;;4.50;99.90;12.80;163505.00;;;;4964286;28;20217;-75
2023/01/11 06:23:56;;;;;;;0.10;0.10;;;4.50;99.90;12.80;163505.00;;;;4953443;28;20194;-77
2023/01/11 06:26:24;;;;;;;0.10;0.10;;;4.50;99.90;12.80;163505.00;;;;4951988;29;20205;-77
2023/01/11 06:28:52;;;;;;;0.10;0.10;;;4.50;99.90;12.80;163505.00;;;;4952868;29;20796;-78
2023/01/11 06:31:21;;;;;;;0.10;0.10;;;4.50;99.90;12.80;163505.00;;;;4953549;29;20499;-76
2023/01/11 06:33:49;;;;;;;0.10;0.10;;;4.50;99.90;12.80;163505.00;;;;4953246;29;20316;-76
2023/01/11 06:36:17;;;;;;;0.10;0.10;;;4.50;99.90;12.80;163505.00;;;;4955737;28;20224;-77
2023/01/11 06:38:45;;;;;;;0.10;0.10;;;4.50;99.90;12.80;163505.00;;;;4972194;28;20197;-77
2023/01/11 06:41:14;;;;;;;0.10;0.10;;;4.50;99.90;12.80;163505.00;;;;4972849;28;20197;-77
2023/01/11 06:43:42;;;;;;;0.10;0.10;;;4.50;99.90;12.80;163505.00;;;;4971704;28;20198;-78
2023/01/11 06:46:12;;;;;;;0.10;0.10;;;4.50;99.90;12.80;163505.00;;;;4961770;28;20205;-78
2023/01/11 06:48:42;;;;;;;0.10;0.10;;;4.60;99.90;12.80;163505.00;;;;4971938;28;20193;-78
2023/01/11 06:51:11;;;;;;;0.10;0.10;;;4.60;99.90;12.80;163505.00;;;;4973600;28;20654;-79
2023/01/11 06:53:40;;;;;;;0.10;0.10;;;4.60;99.90;12.80;163505.00;;;;4976595;28;20197;-78
2023/01/11 06:56:11;;;;;;;0.10;0.10;;;4.50;99.90;12.80;163505.00;;;;4976337;28;20204;-78
2023/01/11 06:58:39;;;;;;;0.10;0.10;;;4.50;99.90;12.80;163505.00;;;;4975771;28;20201;-79
2023/01/11 07:01:08;;;;;;;0.10;0.10;;;4.50;99.90;12.80;163505.00;;;;4976147;28;20194;-78
2023/01/11 07:03:38;;;;;;;0.05;0.05;;;4.50;99.90;12.80;163505.00;;;;4976074;28;20201;-78
2023/01/11 07:06:07;;;;;;;0.10;0.10;;;4.50;99.90;12.80;163505.00;;;;4975939;28;20240;-79
2023/01/11 07:08:36;;;;;;;0.10;0.10;;;4.50;99.90;12.80;163505.00;;;;4975497;28;20201;-78
2023/01/11 07:11:05;;;;;;;0.00;0.00;;;4.50;99.90;12.80;163505.00;;;;4976658;28;20205;-79
2023/01/11 07:13:34;;;;;;;0.08;0.08;;;4.60;99.90;12.80;163505.00;;;;4976167;28;20596;-78
2023/01/11 07:16:02;;;;;;;0.10;0.10;;;4.60;99.90;12.80;163505.00;;;;4975735;28;20201;-79
2023/01/11 07:18:30;;;;;;;0.10;0.10;;;4.60;99.90;12.80;163505.00;;;;4975795;28;20220;-79
2023/01/11 07:20:58;;;;;;;0.10;0.10;;;4.70;99.90;12.80;163505.00;;;;4976464;28;20221;-78
2023/01/11 07:23:28;;;;;;;0.10;0.10;;;4.70;99.90;12.80;163505.00;;;;4976422;28;20197;-79
2023/01/11 07:25:56;;;;;;;0.10;0.10;;;4.70;99.90;12.80;163505.00;;;;4976862;28;20200;-78
2023/01/11 07:28:24;;;;;;;0.10;0.10;;;4.70;99.90;12.80;163505.00;;;;4977126;28;20264;-78
2023/01/11 07:30:53;;;;;;;0.10;0.10;;;4.70;99.90;12.80;163505.00;;;;4982562;28;20276;-79
2023/01/11 07:33:27;;;;;;;0.10;0.10;;;4.70;99.90;12.80;163505.00;;;;4990815;28;20197;-78
2023/01/11 07:35:59;;;;;;;0.10;0.10;;;4.70;99.90;12.80;163505.00;;;;4990329;28;20205;-79
2023/01/11 07:38:28;;;;;;;0.10;0.10;;;4.80;99.90;12.80;163505.00;;;;4974862;28;20247;-78
2023/01/11 07:40:56;;;;;;;0.10;0.10;;;4.90;99.90;12.80;163505.00;;;;4975514;28;20221;-80
2023/01/11 07:43:23;;;;;;;0.10;0.10;;;4.90;99.90;12.80;163505.00;;;;4975464;28;20227;-78
2023/01/11 07:45:52;;;;;;;0.10;0.10;;;5.00;99.90;12.80;163505.00;;;;4990072;28;20208;-78
2023/01/11 07:48:25;;;;;;;0.10;0.10;;;5.00;99.90;12.80;163505.00;;;;4996151;28;20717;-78
2023/01/11 07:50:54;;;;;;;0.10;0.10;;;5.00;99.90;12.80;163505.00;;;;4988732;28;20217;-78
2023/01/11 07:53:25;;;;;;;0.10;0.10;;;5.10;99.90;12.80;163505.00;;;;4968647;28;20240;-78
2023/01/11 07:55:55;;;;;;;0.10;0.10;;;5.10;99.90;12.80;163505.00;;;;4975455;28;20197;-77
2023/01/11 07:58:23;;;;;;;0.10;0.10;;;5.10;99.90;12.80;163505.00;;;;4974535;28;20303;-79
2023/01/11 08:00:51;;;;;;;0.10;0.10;;;5.10;99.90;12.80;163505.00;;;;4974799;28;20272;-78
2023/01/11 08:03:19;;;;;;;0.10;0.10;;;5.20;99.90;12.80;163505.00;;;;4973593;28;20214;-78
2023/01/11 08:05:51;;;;;;;0.10;0.10;;;5.10;99.90;12.80;163505.00;;;;4981950;28;20188;-78
2023/01/11 08:08:19;;;;;;;0.10;0.10;;;5.00;99.90;12.80;163505.00;;;;4994003;28;20239;-77
2023/01/11 08:14:37;;;;;;;0.10;0.10;;;5.10;99.90;12.80;163505.00;;;;4987863;28;20296;-77
2023/01/11 08:16:22;;;;;;;0.10;0.10;;;5.20;99.90;12.80;163505.00;;;;4973568;28;20209;-78
2023/01/11 08:18:50;;;;;;;0.10;0.10;;;5.10;99.90;12.80;163505.00;;;;4973483;28;20225;-78
2023/01/11 08:21:20;;;;;;;0.10;0.10;;;5.10;99.90;12.80;163505.00;;;;4974673;28;20288;-78
2023/01/11 08:23:48;;;;;;;0.10;0.10;;;5.10;99.90;12.80;163505.00;;;;4974801;28;20192;-80
2023/01/11 08:26:16;;;;;;;0.10;0.10;;;5.00;99.90;12.80;163505.00;;;;4974563;28;20198;-79
2023/01/11 08:28:46;;;;;;;0.10;0.10;;;5.10;99.90;12.80;163505.00;;;;4974502;28;20193;-79
2023/01/11 08:31:14;;;;;;;0.10;0.10;;;5.10;99.90;12.80;163505.00;;;;4974630;28;20189;-79
2023/01/11 08:33:43;;;;;;;0.10;0.10;;;5.10;99.90;12.80;163505.00;;;;4974426;28;20667;-78
2023/01/11 08:36:13;;;;;;;0.10;0.10;;;5.20;99.90;12.80;163505.00;;;;4974919;28;20238;-79
2023/01/11 08:38:41;;;;;;;0.00;0.00;;;5.20;99.90;12.80;163505.00;;;;4974580;28;20224;-79
2023/01/11 08:41:10;;;;;;;0.00;0.00;;;5.30;99.90;12.80;163505.00;;;;4956283;28;20236;-78
2023/01/11 08:43:38;;;;;;;0.10;0.10;;;5.30;99.90;12.80;163505.00;;;;4958671;29;20194;-79
2023/01/11 08:46:09;;;;;;;0.10;0.10;;;5.40;99.90;12.80;163505.00;;;;4960306;29;20201;-80
2023/01/11 08:48:37;;;;;;;0.10;0.10;;;5.40;99.90;12.80;163505.00;;;;4960605;28;20220;-79
2023/01/11 08:51:05;;;;;;;0.10;0.10;;;5.50;99.90;12.80;163505.00;;;;4961573;28;20198;-79
2023/01/11 08:53:33;;;;;;;0.10;0.10;;;5.60;99.90;12.80;163505.00;;;;4959418;29;20198;-79
2023/01/11 08:56:01;;;;;;;0.10;0.10;;;5.70;99.90;12.80;163505.00;;;;4959204;28;20198;-79
2023/01/11 08:58:30;;;;;;;0.10;0.10;;;5.70;99.90;12.80;163505.00;;;;4957399;28;20225;-78
2023/01/11 09:00:58;;;;;;;0.10;0.10;;;5.80;99.90;12.80;163505.00;;;;4955878;29;20725;-78
2023/01/11 09:03:28;;;;;;;0.10;0.10;;;5.80;99.90;12.80;163505.00;;;;4954740;28;20194;-78
2023/01/11 09:05:56;;;;;;;0.10;0.10;;;5.90;99.90;12.80;163505.00;;;;4954740;29;20253;-78
2023/01/11 09:08:26;;;;;;;0.10;0.10;;;5.90;99.90;12.80;163505.00;;;;4954273;28;20216;-78
2023/01/11 09:10:55;;;;;;;0.10;0.10;;;5.90;99.90;12.80;163505.00;;;;4954614;28;20224;-79
2023/01/11 09:13:23;;;;;;;0.10;0.10;;;5.80;99.90;12.80;163505.00;;;;4953359;28;20245;-79
2023/01/11 09:15:55;;;;;;;0.10;0.10;;;5.90;99.90;12.80;163505.00;;;;4954475;28;20193;-79
2023/01/11 09:18:25;;;;;;;0.10;0.10;;;5.80;99.90;12.80;163505.00;;;;4954010;28;20603;-78
2023/01/11 09:20:54;;;;;;;0.10;0.10;;;5.90;99.90;12.80;163505.00;;;;4954640;29;20222;-79
2023/01/11 09:23:22;;;;;;;0.10;0.10;;;5.90;99.90;12.80;163505.00;;;;4954412;28;20781;-79
2023/01/11 09:25:50;;;;;;;0.10;0.10;;;6.00;99.90;12.80;163505.00;;;;4954706;28;20198;-78
2023/01/11 09:28:18;;;;;;;0.05;0.05;;;6.00;99.90;12.80;163505.00;;;;4953841;28;20209;-79
2023/01/11 09:30:46;;;;;;;0.10;0.10;;;6.00;99.90;12.80;163505.00;;;;4953977;28;20296;-79
2023/01/11 09:33:14;;;;;;;0.10;0.10;;;6.10;99.90;12.80;163505.00;;;;4953757;28;20197;-79
2023/01/11 09:35:45;;;;;;;0.10;0.10;;;6.10;99.90;12.80;163505.00;;;;4953981;29;20249;-78
2023/01/11 09:38:14;;;;;;;0.10;0.10;;;6.10;99.90;12.80;163505.00;;;;4953786;29;20217;-78
2023/01/11 09:40:58;;;;;;;0.10;0.10;;;6.10;99.90;12.80;163505.00;;;;4975213;28;20264;-79
2023/01/11 09:43:29;;;;;;;0.10;0.10;;;6.10;99.90;12.80;163505.00;;;;4985350;28;20209;-79
2023/01/11 09:46:05;;;;;;;0.10;0.10;;;6.10;99.90;12.80;163505.00;;;;4973165;28;20260;-78
2023/01/11 09:48:42;;;;;;;0.10;0.10;;;6.10;99.90;12.80;163505.00;;;;4972477;28;20344;-79
2023/01/11 09:51:14;;;;;;;0.10;0.10;;;6.10;99.90;12.80;163505.00;;;;4974721;28;20729;-78
2023/01/11 09:53:51;;;;;;;0.10;0.10;;;6.10;99.90;12.80;163505.00;;;;4992159;28;20200;-78
2023/01/11 09:56:27;;;;;;;0.10;0.10;;;6.20;99.90;12.80;163505.00;;;;4988655;28;20204;-79
2023/01/11 09:59:09;;;;;;;0.10;0.10;;;6.30;99.90;12.80;163505.00;;;;4973057;28;20220;-78
2023/01/11 10:01:45;;;;;;;0.10;0.10;;;6.30;99.90;12.80;163505.00;;;;4973331;28;20197;-79
2023/01/11 10:04:35;;;;;;;0.10;0.10;;;6.30;99.90;12.80;163505.00;;;;4972557;28;20201;-79
2023/01/11 10:07:32;;;;;;;0.10;0.10;;;6.40;99.90;12.80;163505.00;;;;4973583;28;20253;-79
2023/01/11 10:10:23;;;;;;;0.10;0.10;;;6.40;99.90;12.80;163505.00;;;;4973271;28;20741;-79
2023/01/11 10:13:29;;;;;;;0.10;0.10;;;6.40;99.90;12.80;163505.00;;;;4991570;28;20287;-79
2023/01/11 10:16:31;;;;;;;0.10;0.10;;;6.40;99.90;12.80;163505.00;;;;4990584;28;20263;-76
2023/01/11 10:19:29;;;;;;;0.10;0.10;;;6.50;99.90;12.80;163505.00;;;;4990547;28;20270;-80
2023/01/11 10:22:14;;;;;;;0.10;0.10;;;6.40;99.90;12.80;163505.00;;;;4992880;28;20192;-79
2023/01/11 10:24:47;;;;;;;0.10;0.10;;;6.40;99.90;12.80;163505.00;;;;4992897;28;20192;-79
2023/01/11 10:27:22;;;;;;;0.10;0.10;;;6.40;99.90;12.80;163505.00;;;;4994615;28;20189;-80
2023/01/11 10:30:11;;;;;;;0.10;0.10;;;6.30;99.90;12.80;163505.00;;;;4996779;28;20259;-80
2023/01/11 10:32:52;;;;;;;0.10;0.10;;;6.30;99.90;12.80;163505.00;;;;4996866;28;20196;-80
2023/01/11 10:35:44;;;;;;;0.10;0.10;;;6.30;99.90;12.80;163505.00;;;;4997899;28;20204;-78
2023/01/11 10:38:42;;;;;;;0.10;0.10;;;6.30;99.90;12.80;163505.00;;;;4997143;28;20267;-80
2023/01/11 10:41:24;;;;;;;0.10;0.10;;;6.40;99.90;12.80;163505.00;;;;4978698;28;20650;-79
2023/01/11 10:44:16;;;;;;;0.10;0.10;;;6.40;99.90;12.80;163505.00;;;;4996715;28;20196;-80
2023/01/11 10:46:49;;;;;;;0.10;0.10;;;6.40;99.90;12.80;163505.00;;;;4996658;28;20199;-77
2023/01/11 10:49:38;;;;;;;0.10;0.10;;;6.50;99.90;12.80;163505.00;;;;4996408;28;20224;-80
2023/01/11 10:52:22;;;;;;;0.10;0.10;;;6.50;99.90;12.80;163505.00;;;;4997532;28;20189;-80
2023/01/11 10:54:54;;;;;;;0.10;0.10;;;6.50;99.90;12.80;163505.00;;;;4997636;28;20196;-79
2023/01/11 10:57:43;;;;;;;0.08;0.08;;;6.50;99.90;12.80;163505.00;;;;4989749;28;20224;-78
2023/01/11 11:00:41;;;;;;;0.05;0.05;;;6.60;99.90;12.80;163505.00;;;;4976338;28;20718;-77
2023/01/11 11:03:47;;;;;;;0.10;0.10;;;6.60;99.90;12.80;163505.00;;;;4975312;28;20222;-77
2023/01/11 11:06:32;;;;;;;0.10;0.10;;;6.70;99.90;12.80;163505.00;;;;4991931;28;20206;-78
2023/01/11 11:09:12;;;;;;;0.00;0.00;;;6.70;99.90;12.80;163505.00;;;;4940006;29;20232;-78
2023/01/11 11:11:51;;;;;;;0.10;0.10;;;6.70;99.90;12.80;163505.00;;;;4972127;28;20283;-78
2023/01/11 11:14:29;;;;;;;0.10;0.10;;;6.70;99.90;12.80;163505.00;;;;4978326;28;20205;-78
2023/01/11 11:17:13;;;;;;;0.10;0.10;;;6.70;99.90;12.80;163505.00;;;;4976643;28;20231;-78
2023/01/11 11:19:41;;;;;;;0.10;0.10;;;6.70;99.90;12.80;163505.00;;;;4978104;28;20702;-80
2023/01/11 11:22:11;;;;;;;0.10;0.10;;;6.80;99.90;12.80;163505.00;;;;4977408;28;20222;-78
2023/01/11 11:24:45;;;;;;;0.10;0.10;;;6.80;99.90;12.80;163505.00;;;;4976498;28;20212;-78
2023/01/11 11:27:24;;;;;;;0.10;0.10;;;6.80;99.90;12.80;163505.00;;;;4977996;28;20205;-82
2023/01/11 11:29:55;;;;;;;0.10;0.10;;;6.80;99.90;12.80;163505.00;;;;4994919;28;20220;-78
2023/01/11 11:32:30;;;;;;;0.10;0.10;;;6.90;99.90;12.80;163505.00;;;;4999851;28;20232;-81
2023/01/11 11:34:59;;;;;;;0.10;0.10;;;6.90;99.90;12.80;163505.00;;;;4992185;28;20208;-78
2023/01/11 11:37:33;;;;;;;0.10;0.10;;;6.90;99.90;12.80;163505.00;;;;4975190;28;20205;-78
2023/01/11 11:40:02;;;;;;;0.10;0.10;;;7.00;99.90;12.80;163505.00;;;;4978989;28;20271;-78
2023/01/11 11:42:30;;;;;;;0.10;0.10;;;7.00;99.90;12.80;163505.00;;;;4979039;28;20197;-79